Time;durP1;ratioP1;P1;durP2;ratioP2;P2;SDS_P1;SDS_P2;PMS_P1;PMS_P2;Temp;Humidity;BMP_temperature;BMP_pressure;BME280_temperature;BME280_humidity;BME280_pressure;Samples;Min_cycle;Max_cycle;Signal;HPM_P1;HPM_P2
2022/04/06 00:01:38;;;;;;;23.20;8.20;;;8.50;99.90;;;;;;5062403;28;20116;-34
2022/04/06 00:04:03;;;;;;;21.50;7.77;;;8.30;99.90;;;;;;5062936;28;20068;-32
2022/04/06 00:06:29;;;;;;;17.73;7.67;;;8.40;99.90;;;;;;5038048;28;20506;-35
2022/04/06 00:08:55;;;;;;;25.03;8.10;;;8.40;99.90;;;;;;5042635;28;20404;-32
2022/04/06 00:11:21;;;;;;;23.93;8.60;;;8.40;99.90;;;;;;5044782;28;20095;-35
2022/04/06 00:13:48;;;;;;;24.10;8.90;;;8.40;99.90;;;;;;5044272;28;20052;-32
2022/04/06 00:16:14;;;;;;;23.43;9.57;;;8.40;99.90;;;;;;5035779;28;20041;-32
2022/04/06 00:18:40;;;;;;;23.93;9.37;;;8.40;99.90;;;;;;5036241;28;20108;-36
2022/04/06 00:21:05;;;;;;;24.93;9.43;;;8.40;99.90;;;;;;5025640;28;20108;-33
2022/04/06 00:23:31;;;;;;;26.97;10.10;;;8.30;99.90;;;;;;5042820;28;20053;-34
2022/04/06 00:25:57;;;;;;;27.10;10.83;;;8.30;99.90;;;;;;5044841;28;20068;-35
2022/04/06 00:28:22;;;;;;;26.43;10.77;;;8.30;99.90;;;;;;5029079;28;20052;-34
2022/04/06 00:30:48;;;;;;;26.77;10.37;;;8.40;99.90;;;;;;5044029;28;20052;-35
2022/04/06 00:33:14;;;;;;;27.13;10.27;;;8.40;99.90;;;;;;5043873;28;20044;-34
2022/04/06 00:35:40;;;;;;;30.13;11.37;;;8.40;99.90;;;;;;5043290;28;20110;-33
2022/04/06 00:38:07;;;;;;;33.53;11.43;;;8.40;99.90;;;;;;5038064;28;20044;-34
2022/04/06 00:40:34;;;;;;;28.57;11.40;;;8.30;99.90;;;;;;5064387;28;20087;-34
2022/04/06 00:43:08;;;;;;;30.93;11.37;;;8.40;99.90;;;;;;5062243;28;20037;-35
2022/04/06 00:45:34;;;;;;;27.13;11.53;;;8.30;99.90;;;;;;5062975;28;20123;-34
2022/04/06 00:47:59;;;;;;;31.10;12.17;;;8.30;99.90;;;;;;5046726;28;20067;-35
2022/04/06 00:50:25;;;;;;;35.97;13.33;;;8.30;99.90;;;;;;5063150;28;20041;-34
2022/04/06 00:52:57;;;;;;;32.60;12.77;;;8.20;99.90;;;;;;5063716;28;20049;-32
2022/04/06 00:55:36;;;;;;;32.83;12.68;;;8.40;99.90;;;;;;5064770;28;20040;-34
2022/04/06 00:58:02;;;;;;;27.57;13.23;;;8.30;99.90;;;;;;5048447;28;20410;-32
2022/04/06 01:00:29;;;;;;;31.03;13.03;;;8.20;99.90;;;;;;5062899;28;20093;-34
2022/04/06 01:02:55;;;;;;;32.17;13.47;;;8.40;99.90;;;;;;5062147;28;20481;-32
2022/04/06 01:05:21;;;;;;;32.70;13.20;;;8.40;99.90;;;;;;5057708;28;20053;-34
2022/04/06 01:07:51;;;;;;;34.50;13.87;;;8.40;99.90;;;;;;5026395;28;20041;-34
2022/04/06 01:10:17;;;;;;;36.17;13.53;;;8.40;99.90;;;;;;5062022;28;20101;-32
2022/04/06 01:12:47;;;;;;;33.07;12.93;;;8.50;99.90;;;;;;5063375;28;20081;-33
2022/04/06 01:15:14;;;;;;;30.20;13.03;;;8.40;99.90;;;;;;5064607;28;20313;-34
2022/04/06 01:17:40;;;;;;;29.87;13.00;;;8.30;99.90;;;;;;5047704;28;20052;-33
2022/04/06 01:20:07;;;;;;;33.93;13.00;;;8.40;99.90;;;;;;5064642;28;20035;-34
2022/04/06 01:22:34;;;;;;;24.23;11.30;;;8.40;99.90;;;;;;5063241;28;20499;-35
2022/04/06 01:25:01;;;;;;;27.00;10.50;;;8.40;99.90;;;;;;5064454;28;20037;-31
2022/04/06 01:27:27;;;;;;;24.63;9.93;;;8.40;99.90;;;;;;5039436;28;20146;-31
2022/04/06 01:29:54;;;;;;;26.37;10.10;;;8.50;99.90;;;;;;5044575;28;20098;-34
2022/04/06 01:32:25;;;;;;;25.17;9.93;;;8.50;99.90;;;;;;5045012;28;20430;-33
2022/04/06 01:34:54;;;;;;;25.67;9.00;;;8.50;99.90;;;;;;5048121;28;20045;-34
2022/04/06 01:37:21;;;;;;;26.47;9.20;;;8.50;99.90;;;;;;5036461;28;20128;-32
2022/04/06 01:39:49;;;;;;;23.17;8.87;;;8.60;99.90;;;;;;5066217;28;20056;-34
2022/04/06 01:42:17;;;;;;;27.47;9.17;;;8.60;99.90;;;;;;5067016;28;20075;-32
2022/04/06 01:44:44;;;;;;;21.93;8.53;;;8.60;99.90;;;;;;5067975;28;20474;-32
2022/04/06 01:47:11;;;;;;;21.97;8.13;;;8.50;99.90;;;;;;5049724;28;20135;-36
2022/04/06 01:52:21;;;;;;;21.57;8.10;;;8.60;99.90;;;;;;5066571;28;20052;-34
2022/04/06 01:54:50;;;;;;;19.37;6.93;;;8.60;99.90;;;;;;5068361;28;20059;-35
2022/04/06 01:57:17;;;;;;;22.03;7.27;;;8.60;99.90;;;;;;5051504;28;20040;-33
2022/04/06 01:59:43;;;;;;;22.03;6.57;;;8.60;99.90;;;;;;5066426;28;20415;-35
2022/04/06 02:02:11;;;;;;;19.47;6.83;;;8.60;99.90;;;;;;5066433;28;20152;-33
2022/04/06 02:04:38;;;;;;;23.53;6.93;;;8.60;99.90;;;;;;5067772;28;20491;-32
2022/04/06 02:07:04;;;;;;;16.33;6.20;;;8.60;99.90;;;;;;5030370;28;20040;-38
2022/04/06 02:09:30;;;;;;;22.07;6.50;;;8.60;99.90;;;;;;5046203;28;20158;-30
2022/04/06 02:11:56;;;;;;;18.97;5.87;;;8.70;99.90;;;;;;5047290;28;20515;-33
2022/04/06 02:14:22;;;;;;;20.33;6.43;;;8.70;99.90;;;;;;5046572;28;20041;-32
2022/04/06 02:16:48;;;;;;;19.13;6.23;;;8.60;99.90;;;;;;5031536;28;20056;-35
2022/04/06 02:19:14;;;;;;;18.27;6.40;;;8.60;99.90;;;;;;5046693;28;20040;-33
2022/04/06 02:21:40;;;;;;;16.23;5.80;;;8.60;99.90;;;;;;5045479;28;20587;-34
2022/04/06 02:24:06;;;;;;;21.20;5.83;;;8.60;99.90;;;;;;5046602;28;20033;-33
2022/04/06 02:26:31;;;;;;;19.13;5.13;;;8.60;99.90;;;;;;5033493;28;20075;-35
2022/04/06 02:28:59;;;;;;;19.63;5.73;;;8.70;99.90;;;;;;5044399;28;20128;-34
2022/04/06 02:31:25;;;;;;;14.20;5.33;;;8.60;99.90;;;;;;5047304;28;20057;-33
2022/04/06 02:33:50;;;;;;;16.80;5.27;;;8.60;99.90;;;;;;5046160;28;20049;-31
2022/04/06 02:36:17;;;;;;;14.33;5.37;;;8.70;99.90;;;;;;5036123;28;20523;-34
2022/04/06 02:38:44;;;;;;;14.70;4.60;;;8.60;99.90;;;;;;5057351;28;20048;-33
2022/04/06 02:41:09;;;;;;;18.17;4.80;;;8.70;99.90;;;;;;5065694;28;20060;-33
2022/04/06 02:43:35;;;;;;;9.63;4.47;;;8.70;99.90;;;;;;5063772;28;20041;-35
2022/04/06 02:46:01;;;;;;;13.10;4.90;;;8.70;99.90;;;;;;5066821;28;20047;-32
2022/04/06 02:48:27;;;;;;;13.90;4.40;;;8.70;99.90;;;;;;5049090;28;20167;-33
2022/04/06 02:50:53;;;;;;;12.03;3.77;;;8.70;99.90;;;;;;5065266;28;20140;-34
2022/04/06 02:53:19;;;;;;;13.27;3.80;;;8.70;99.90;;;;;;5065334;28;20060;-34
2022/04/06 02:55:45;;;;;;;13.63;3.60;;;8.70;99.90;;;;;;5067192;28;20396;-35
2022/04/06 02:58:11;;;;;;;11.70;3.90;;;8.70;99.90;;;;;;5048481;28;20051;-33
2022/04/06 03:00:37;;;;;;;9.53;3.70;;;8.60;99.90;;;;;;5065091;28;20040;-32
2022/04/06 03:03:03;;;;;;;10.43;3.00;;;8.80;99.90;;;;;;5063880;28;20064;-33
2022/04/06 03:05:29;;;;;;;11.27;2.83;;;8.70;99.90;;;;;;5058635;28;20614;-35
2022/04/06 03:07:54;;;;;;;10.67;3.07;;;8.70;99.90;;;;;;5029798;28;20045;-32
2022/04/06 03:10:20;;;;;;;12.27;2.90;;;8.70;99.90;;;;;;5045153;28;20033;-34
2022/04/06 03:12:46;;;;;;;12.27;2.80;;;8.60;99.90;;;;;;5045590;28;20483;-32
2022/04/06 03:15:12;;;;;;;6.17;2.30;;;8.70;99.90;;;;;;5046211;28;20178;-34
2022/04/06 03:17:38;;;;;;;10.93;3.10;;;8.60;99.90;;;;;;5046701;28;20055;-33
2022/04/06 03:20:05;;;;;;;9.83;3.30;;;8.90;99.90;;;;;;5066519;28;20047;-31
2022/04/06 03:22:31;;;;;;;9.13;2.70;;;8.70;99.90;;;;;;5065011;28;20083;-34
2022/04/06 03:24:56;;;;;;;10.47;3.10;;;8.70;99.90;;;;;;5065770;28;20495;-32
2022/04/06 03:27:22;;;;;;;10.37;3.13;;;8.70;99.90;;;;;;5050164;28;20036;-33
2022/04/06 03:29:48;;;;;;;9.13;3.20;;;8.70;99.90;;;;;;5065786;28;20095;-32
2022/04/06 03:32:13;;;;;;;11.50;3.37;;;8.70;99.90;;;;;;5046781;28;20052;-32
2022/04/06 03:34:39;;;;;;;11.63;3.40;;;8.60;99.90;;;;;;5047369;28;20048;-35
2022/04/06 03:37:05;;;;;;;14.80;3.20;;;8.70;99.90;;;;;;5050215;28;20049;-35
2022/04/06 03:39:32;;;;;;;12.03;3.47;;;8.70;99.90;;;;;;5063875;28;20076;-33
2022/04/06 03:41:57;;;;;;;13.23;3.73;;;8.70;99.90;;;;;;5065666;28;20045;-32
2022/04/06 03:44:23;;;;;;;10.83;3.73;;;8.70;99.90;;;;;;5064581;28;20658;-33
2022/04/06 03:46:49;;;;;;;17.77;4.40;;;8.70;99.90;;;;;;5050191;28;20045;-34
2022/04/06 03:49:15;;;;;;;12.40;4.20;;;8.70;99.90;;;;;;5064170;28;20040;-34
2022/04/06 03:51:40;;;;;;;12.00;4.50;;;8.70;99.90;;;;;;5063842;28;20501;-32
2022/04/06 03:54:06;;;;;;;14.23;4.53;;;8.60;99.90;;;;;;5064304;28;20093;-32
2022/04/06 03:56:32;;;;;;;8.93;4.60;;;8.60;99.90;;;;;;5051876;28;20074;-33
2022/04/06 03:58:58;;;;;;;16.03;4.90;;;8.60;99.90;;;;;;5062540;28;20048;-33
2022/04/06 04:01:24;;;;;;;14.27;5.20;;;8.70;99.90;;;;;;5062753;28;20563;-31
2022/04/06 04:03:50;;;;;;;15.93;4.97;;;8.60;99.90;;;;;;5064482;28;20091;-34
2022/04/06 04:06:16;;;;;;;14.47;5.47;;;8.60;99.90;;;;;;5043086;28;20187;-33
2022/04/06 04:08:42;;;;;;;16.57;6.20;;;8.60;99.90;;;;;;5039750;28;20120;-34
2022/04/06 04:11:08;;;;;;;14.00;5.63;;;8.60;99.90;;;;;;5045803;28;20476;-32
2022/04/06 04:13:34;;;;;;;15.23;5.50;;;8.60;99.90;;;;;;5044232;28;20097;-34
2022/04/06 04:16:00;;;;;;;12.67;5.70;;;8.60;99.90;;;;;;5050146;28;20032;-32
2022/04/06 04:18:26;;;;;;;16.03;6.13;;;8.50;99.90;;;;;;5048342;28;20051;-31
2022/04/06 04:21:31;;;;;;;15.43;5.63;;;8.50;99.90;;;;;;5065121;28;20201;-34
2022/04/06 04:23:37;;;;;;;15.10;5.60;;;8.50;99.90;;;;;;5063954;28;20051;-31
2022/04/06 04:26:02;;;;;;;19.03;6.90;;;8.50;99.90;;;;;;5064718;28;20447;-34
2022/04/06 04:28:28;;;;;;;22.57;6.80;;;8.40;99.90;;;;;;5049057;28;20256;-31
2022/04/06 04:30:54;;;;;;;18.00;6.73;;;8.40;99.90;;;;;;5064354;28;20045;-35
2022/04/06 04:33:20;;;;;;;17.10;7.53;;;8.40;99.90;;;;;;5063087;28;20051;-33
2022/04/06 04:35:45;;;;;;;22.20;7.53;;;8.40;99.90;;;;;;5064639;28;20599;-31
2022/04/06 04:38:11;;;;;;;20.70;7.57;;;8.40;99.90;;;;;;5049528;28;20387;-32
2022/04/06 04:40:37;;;;;;;22.63;7.23;;;8.30;99.90;;;;;;5064218;28;20139;-34
2022/04/06 04:43:03;;;;;;;22.47;7.70;;;8.30;99.90;;;;;;5063999;28;20395;-32
2022/04/06 04:45:29;;;;;;;19.87;7.60;;;8.30;99.90;;;;;;5064709;28;20049;-32
2022/04/06 04:47:54;;;;;;;18.00;7.67;;;8.30;99.90;;;;;;5048560;28;20692;-34
2022/04/06 04:50:20;;;;;;;23.53;8.03;;;8.30;99.90;;;;;;5064424;28;20109;-34
2022/04/06 04:52:46;;;;;;;23.10;7.70;;;8.30;99.90;;;;;;5064160;28;20143;-34
2022/04/06 04:55:12;;;;;;;17.83;8.07;;;8.30;99.90;;;;;;5062607;28;20036;-33
2022/04/06 04:57:37;;;;;;;21.00;7.83;;;8.30;99.90;;;;;;5047118;28;20044;-32
2022/04/06 05:00:06;;;;;;;25.70;7.57;;;8.30;99.90;;;;;;5063390;28;20115;-32
2022/04/06 05:02:32;;;;;;;24.73;7.53;;;8.30;99.90;;;;;;5062352;28;20049;-31
2022/04/06 05:04:57;;;;;;;20.47;7.03;;;8.30;99.90;;;;;;5061023;28;20082;-31
2022/04/06 05:07:23;;;;;;;24.27;7.80;;;8.30;99.90;;;;;;5039204;28;22309;-33
2022/04/06 05:09:49;;;;;;;22.40;7.23;;;8.30;99.90;;;;;;5048613;28;20053;-33
2022/04/06 05:12:16;;;;;;;26.20;7.87;;;8.30;99.90;;;;;;5046089;28;20049;-34
2022/04/06 05:14:42;;;;;;;19.63;7.50;;;8.30;99.90;;;;;;5050338;28;20041;-31
2022/04/06 05:17:08;;;;;;;16.97;6.70;;;8.30;99.90;;;;;;5033568;28;20037;-35
2022/04/06 05:19:33;;;;;;;21.43;7.23;;;8.30;99.90;;;;;;5048906;28;20288;-31
2022/04/06 05:21:59;;;;;;;24.90;7.83;;;8.20;99.90;;;;;;5058886;28;20743;-32
2022/04/06 05:24:26;;;;;;;19.90;7.07;;;8.40;99.90;;;;;;5049956;28;20427;-31
2022/04/06 05:26:51;;;;;;;25.57;7.40;;;8.30;99.90;;;;;;5031363;28;20508;-32
2022/04/06 05:29:17;;;;;;;25.10;8.13;;;8.20;99.90;;;;;;5047220;28;20131;-33
2022/04/06 05:31:43;;;;;;;24.87;7.90;;;8.20;99.90;;;;;;5049077;28;20059;-33
2022/04/06 05:34:08;;;;;;;28.63;8.13;;;8.10;99.90;;;;;;5047611;28;20045;-34
2022/04/06 05:36:34;;;;;;;22.97;7.47;;;8.10;99.90;;;;;;5034156;28;20053;-34
2022/04/06 05:39:00;;;;;;;24.90;8.00;;;8.10;99.90;;;;;;5064052;28;20049;-33
2022/04/06 05:41:27;;;;;;;23.63;7.57;;;8.10;99.90;;;;;;5067616;28;20329;-32
2022/04/06 05:43:53;;;;;;;25.00;7.57;;;8.10;99.90;;;;;;5066927;28;20131;-34
2022/04/06 05:46:18;;;;;;;23.07;7.43;;;8.10;99.90;;;;;;5047316;28;20131;-34
2022/04/06 05:48:44;;;;;;;22.57;7.20;;;8.10;99.90;;;;;;5046471;28;20037;-32
2022/04/06 05:51:10;;;;;;;19.17;6.80;;;8.10;99.90;;;;;;5067185;28;20102;-32
2022/04/06 05:53:35;;;;;;;23.07;7.20;;;8.00;99.90;;;;;;5064270;28;20045;-34
2022/04/06 05:56:01;;;;;;;20.77;7.83;;;8.10;99.90;;;;;;5067560;28;20331;-34
2022/04/06 05:58:27;;;;;;;23.97;7.17;;;8.10;99.90;;;;;;5051693;28;20561;-31
2022/04/06 06:00:52;;;;;;;22.20;7.97;;;8.00;99.90;;;;;;5062410;28;20348;-36
2022/04/06 06:03:18;;;;;;;27.97;7.70;;;8.00;99.90;;;;;;5063461;28;20493;-33
2022/04/06 06:05:44;;;;;;;21.07;7.53;;;8.00;99.90;;;;;;5055838;28;20068;-33
2022/04/06 06:08:09;;;;;;;28.33;8.20;;;8.10;99.90;;;;;;5041353;28;20048;-32
2022/04/06 06:10:35;;;;;;;25.33;8.23;;;8.00;99.90;;;;;;5057160;28;20080;-31
2022/04/06 06:13:01;;;;;;;21.53;8.20;;;8.00;99.90;;;;;;5050896;28;20455;-34
2022/04/06 06:15:26;;;;;;;26.57;8.33;;;8.00;99.90;;;;;;5043107;28;20040;-33
2022/04/06 06:17:53;;;;;;;20.03;7.80;;;8.00;99.90;;;;;;5027237;28;20056;-33
2022/04/06 06:20:19;;;;;;;20.77;7.67;;;8.00;99.90;;;;;;5041288;28;20127;-35
2022/04/06 06:22:45;;;;;;;19.30;6.87;;;8.00;99.90;;;;;;5042415;28;20503;-32
2022/04/06 06:25:11;;;;;;;23.53;7.50;;;8.00;99.90;;;;;;5043641;28;20128;-32
2022/04/06 06:27:38;;;;;;;21.77;7.50;;;8.00;99.90;;;;;;5027088;28;20488;-31
2022/04/06 06:30:05;;;;;;;17.13;6.43;;;8.00;99.90;;;;;;5045849;28;20139;-31
2022/04/06 06:32:31;;;;;;;18.03;6.60;;;8.00;99.90;;;;;;5044838;28;20045;-32
2022/04/06 06:34:56;;;;;;;17.40;6.63;;;8.00;99.90;;;;;;5044020;28;20106;-33
2022/04/06 06:37:22;;;;;;;26.93;6.43;;;8.00;99.90;;;;;;5036837;28;20029;-34
2022/04/06 06:39:47;;;;;;;21.50;6.27;;;8.00;99.90;;;;;;5064194;28;20143;-30
2022/04/06 06:42:13;;;;;;;21.57;6.70;;;8.00;99.90;;;;;;5063029;28;20127;-34
2022/04/06 06:44:39;;;;;;;21.00;6.83;;;8.10;99.90;;;;;;5065212;28;20105;-36
2022/04/06 06:47:05;;;;;;;17.80;6.50;;;8.00;99.90;;;;;;5046950;28;20367;-35
2022/04/06 06:49:30;;;;;;;20.67;6.90;;;8.00;99.90;;;;;;5046193;28;20839;-33
2022/04/06 06:51:56;;;;;;;25.33;6.30;;;8.00;99.90;;;;;;5063913;28;20071;-32
2022/04/06 06:54:22;;;;;;;20.13;6.23;;;8.10;99.90;;;;;;5063982;28;20055;-33
2022/04/06 06:56:47;;;;;;;18.27;6.20;;;8.00;99.90;;;;;;5047512;28;20052;-33
2022/04/06 06:59:13;;;;;;;18.47;6.00;;;8.00;99.90;;;;;;5043643;28;20053;-33
2022/04/06 07:01:39;;;;;;;21.27;6.33;;;8.00;99.90;;;;;;5063739;28;20052;-34
2022/04/06 07:04:04;;;;;;;20.17;5.80;;;8.00;99.90;;;;;;5061643;28;20041;-35
2022/04/06 07:06:30;;;;;;;16.93;6.27;;;8.00;99.90;;;;;;5036040;28;20156;-35
2022/04/06 07:08:55;;;;;;;21.13;6.60;;;8.00;99.90;;;;;;5043358;28;20128;-33
2022/04/06 07:11:21;;;;;;;17.73;5.90;;;8.00;99.90;;;;;;5045576;28;20095;-33
2022/04/06 07:13:47;;;;;;;17.93;5.80;;;7.90;99.90;;;;;;5044082;28;20090;-32
2022/04/06 07:16:15;;;;;;;18.07;5.50;;;7.90;99.90;;;;;;5037933;28;20041;-33
2022/04/06 07:18:41;;;;;;;16.10;5.83;;;7.90;99.90;;;;;;5016734;28;20110;-33
2022/04/06 07:21:06;;;;;;;19.07;5.83;;;7.90;99.90;;;;;;5049834;28;20114;-33
2022/04/06 07:23:33;;;;;;;20.63;5.40;;;7.90;99.90;;;;;;5049879;28;20304;-33
2022/04/06 07:25:59;;;;;;;16.03;5.20;;;7.90;99.90;;;;;;5046900;28;20693;-32
2022/04/06 07:28:24;;;;;;;16.57;5.50;;;7.90;99.90;;;;;;5032099;28;20049;-32
2022/04/06 07:30:50;;;;;;;20.30;5.43;;;7.90;99.90;;;;;;5050694;28;20086;-32
2022/04/06 07:33:16;;;;;;;13.93;5.07;;;8.00;99.90;;;;;;5050447;28;20059;-35
2022/04/06 07:35:42;;;;;;;27.23;5.53;;;7.90;99.90;;;;;;5051900;28;20049;-35
2022/04/06 07:38:10;;;;;;;14.30;5.37;;;7.90;99.90;;;;;;5029781;28;20049;-34
2022/04/06 07:40:35;;;;;;;19.93;5.63;;;7.90;99.90;;;;;;5045116;28;20057;-33
2022/04/06 07:43:01;;;;;;;19.70;5.60;;;7.90;99.90;;;;;;5047715;28;20047;-36
2022/04/06 07:45:27;;;;;;;15.50;4.70;;;7.90;99.90;;;;;;5049460;28;20503;-33
2022/04/06 07:47:53;;;;;;;19.97;5.37;;;7.90;99.90;;;;;;5035516;28;20045;-36
2022/04/06 07:50:20;;;;;;;21.07;5.07;;;8.00;99.90;;;;;;5049983;28;20052;-32
2022/04/06 07:52:47;;;;;;;23.90;6.07;;;8.00;99.90;;;;;;5050000;28;20049;-33
2022/04/06 07:55:13;;;;;;;24.60;6.23;;;8.00;99.90;;;;;;5051202;28;20226;-35
2022/04/06 07:57:40;;;;;;;19.10;5.40;;;8.00;99.90;;;;;;5030667;28;20049;-32
2022/04/06 08:00:08;;;;;;;20.17;5.43;;;7.90;99.90;;;;;;5050209;28;20044;-36
2022/04/06 08:02:34;;;;;;;16.60;5.43;;;8.00;99.90;;;;;;5051472;28;20044;-34
2022/04/06 08:04:59;;;;;;;19.67;5.77;;;8.00;99.90;;;;;;5045995;28;20098;-35
2022/04/06 08:07:25;;;;;;;21.33;5.30;;;8.10;99.90;;;;;;5034287;28;20315;-32
2022/04/06 08:09:51;;;;;;;23.40;5.23;;;8.10;99.90;;;;;;5044572;28;20051;-32
2022/04/06 08:12:16;;;;;;;19.60;5.30;;;8.10;99.90;;;;;;5045235;28;20032;-34
2022/04/06 08:14:42;;;;;;;24.60;5.60;;;8.10;99.90;;;;;;5043860;28;20470;-32
2022/04/06 08:17:08;;;;;;;17.73;5.07;;;8.10;99.90;;;;;;5032095;28;20036;-34
2022/04/06 08:19:33;;;;;;;21.57;5.00;;;8.10;99.90;;;;;;5043159;28;20048;-36
2022/04/06 08:21:59;;;;;;;12.77;4.97;;;8.10;99.90;;;;;;5046590;28;20369;-35
2022/04/06 08:24:27;;;;;;;24.20;5.20;;;8.10;99.90;;;;;;5047800;28;20055;-34
2022/04/06 08:26:53;;;;;;;17.97;5.13;;;8.10;99.90;;;;;;5025895;28;20094;-32
2022/04/06 08:29:19;;;;;;;18.50;5.60;;;8.20;99.90;;;;;;5045917;28;20053;-34
2022/04/06 08:31:44;;;;;;;18.57;5.37;;;8.20;99.90;;;;;;5044641;28;20533;-34
2022/04/06 08:34:10;;;;;;;16.47;4.77;;;8.20;99.90;;;;;;5045275;28;20055;-34
2022/04/06 08:36:36;;;;;;;13.37;4.50;;;8.20;99.90;;;;;;5030477;28;20364;-32
2022/04/06 08:39:02;;;;;;;21.23;4.80;;;8.20;99.90;;;;;;5046589;28;20136;-36
2022/04/06 08:41:29;;;;;;;17.27;5.23;;;8.20;99.90;;;;;;5048313;28;20517;-35
2022/04/06 08:43:59;;;;;;;23.37;5.40;;;8.20;99.90;;;;;;5043760;28;20083;-34
2022/04/06 08:46:25;;;;;;;23.13;5.90;;;8.20;99.90;;;;;;5032416;28;20049;-33
2022/04/06 08:48:52;;;;;;;26.77;5.70;;;8.30;99.90;;;;;;5044821;28;20418;-34
2022/04/06 08:51:19;;;;;;;26.67;5.83;;;8.30;99.90;;;;;;5046850;28;20539;-33
2022/04/06 08:53:46;;;;;;;22.17;6.03;;;8.30;99.90;;;;;;5044758;28;20057;-32
2022/04/06 08:56:13;;;;;;;24.80;5.17;;;8.30;99.90;;;;;;5036020;28;20516;-35
2022/04/06 08:58:39;;;;;;;20.83;5.07;;;8.40;99.90;;;;;;5040003;28;20503;-32
2022/04/06 09:01:06;;;;;;;20.10;5.10;;;8.60;99.90;;;;;;5045639;28;20171;-33
2022/04/06 09:03:31;;;;;;;19.33;4.27;;;8.50;99.90;;;;;;5050480;28;20578;-34
2022/04/06 09:06:05;;;;;;;20.47;4.80;;;8.40;99.90;;;;;;5046673;28;20044;-31
2022/04/06 09:08:42;;;;;;;17.97;4.90;;;8.50;99.90;;;;;;5026466;28;20088;-33
2022/04/06 09:11:23;;;;;;;18.60;4.80;;;8.50;99.90;;;;;;5050827;28;20041;-35
2022/04/06 09:13:58;;;;;;;20.98;4.57;;;8.50;99.90;;;;;;5048197;28;20503;-35
2022/04/06 09:16:31;;;;;;;14.73;4.60;;;8.60;99.90;;;;;;5036621;28;20496;-35
2022/04/06 09:19:05;;;;;;;20.70;5.13;;;8.60;99.90;;;;;;5046318;28;20076;-33
2022/04/06 09:21:32;;;;;;;22.07;4.93;;;8.60;99.90;;;;;;5044280;28;20079;-32
2022/04/06 09:23:58;;;;;;;19.37;5.30;;;8.70;99.90;;;;;;5043052;28;20064;-32
2022/04/06 09:26:25;;;;;;;21.13;5.57;;;8.80;99.90;;;;;;5036976;28;20570;-35
2022/04/06 09:28:51;;;;;;;19.77;5.40;;;8.80;99.90;;;;;;5042770;28;20407;-35
2022/04/06 09:31:18;;;;;;;18.03;5.10;;;8.90;99.90;;;;;;5043699;28;20052;-34
2022/04/06 09:33:58;;;;;;;24.23;5.77;;;8.80;99.90;;;;;;5043175;28;20091;-34
2022/04/06 09:36:27;;;;;;;23.77;5.57;;;9.00;99.90;;;;;;5031426;28;20045;-35
2022/04/06 09:38:53;;;;;;;19.40;5.50;;;9.10;99.90;;;;;;5042775;28;20051;-34
2022/04/06 09:41:19;;;;;;;18.63;5.20;;;9.10;99.90;;;;;;5045148;28;20404;-31
2022/04/06 09:43:48;;;;;;;17.50;5.03;;;9.20;99.90;;;;;;5030049;28;20052;-33
2022/04/06 09:49:03;;;;;;;14.63;5.70;;;9.50;99.90;;;;;;5041030;28;20148;-34
2022/04/06 09:51:29;;;;;;;18.73;5.43;;;9.40;99.90;;;;;;5046174;28;20526;-32
2022/04/06 09:53:55;;;;;;;16.93;4.97;;;9.40;99.90;;;;;;5044737;28;20079;-33
2022/04/06 09:56:21;;;;;;;18.53;4.90;;;9.50;99.90;;;;;;5036882;28;20045;-34
2022/04/06 09:58:47;;;;;;;18.83;4.60;;;9.40;99.90;;;;;;5041650;28;20056;-34
2022/04/06 10:01:15;;;;;;;18.27;4.80;;;9.50;99.90;;;;;;5048559;28;20496;-32
2022/04/06 10:03:48;;;;;;;22.33;5.40;;;9.40;99.90;;;;;;5043760;28;20531;-35
2022/04/06 10:06:14;;;;;;;18.77;5.13;;;9.40;99.90;;;;;;5038008;28;20056;-35
2022/04/06 10:08:40;;;;;;;20.33;5.87;;;9.40;99.90;;;;;;5041248;28;20088;-34
2022/04/06 10:11:06;;;;;;;23.20;5.77;;;9.50;99.90;;;;;;5045933;28;20127;-36
2022/04/06 10:13:33;;;;;;;21.20;5.63;;;9.50;99.90;;;;;;5046510;28;20509;-36
2022/04/06 10:15:59;;;;;;;20.97;5.10;;;9.50;99.90;;;;;;5049731;28;20049;-34
2022/04/06 10:18:31;;;;;;;23.37;5.80;;;9.50;99.90;;;;;;5034981;28;20045;-32
2022/04/06 10:21:17;;;;;;;21.30;5.10;;;9.50;99.90;;;;;;5045251;28;20049;-35
2022/04/06 10:24:17;;;;;;;26.17;5.90;;;9.50;99.90;;;;;;5047923;28;20122;-37
2022/04/06 10:27:06;;;;;;;19.57;5.10;;;9.60;99.90;;;;;;5026828;28;20164;-37
2022/04/06 10:29:32;;;;;;;15.67;5.40;;;9.60;99.90;;;;;;5046155;28;20049;-37
2022/04/06 10:31:57;;;;;;;22.70;5.77;;;9.60;99.90;;;;;;5043288;28;20075;-35
2022/04/06 10:34:30;;;;;;;25.23;6.73;;;9.60;99.90;;;;;;5044814;28;20037;-37
2022/04/06 10:37:11;;;;;;;22.93;6.20;;;9.60;99.90;;;;;;5026625;28;20075;-36
2022/04/06 10:39:52;;;;;;;21.67;7.03;;;9.60;99.90;;;;;;5041368;28;20115;-35
2022/04/06 10:42:33;;;;;;;19.75;5.95;;;9.60;99.90;;;;;;5043582;28;20049;-34
2022/04/06 10:44:59;;;;;;;25.65;6.30;;;9.60;99.90;;;;;;5048798;28;20055;-32
2022/04/06 10:47:26;;;;;;;23.97;5.93;;;9.50;99.90;;;;;;5030345;28;20218;-33
2022/04/06 10:50:10;;;;;;;22.97;6.93;;;9.50;99.90;;;;;;5047947;28;20032;-34
2022/04/06 10:52:36;;;;;;;26.03;6.47;;;9.60;99.90;;;;;;5045315;28;20048;-34
2022/04/06 10:55:09;;;;;;;22.60;5.90;;;9.50;99.90;;;;;;5047418;28;20609;-32
2022/04/06 10:57:55;;;;;;;25.20;6.43;;;9.50;99.90;;;;;;5037315;28;20531;-34
2022/04/06 11:00:21;;;;;;;23.40;6.20;;;9.50;99.90;;;;;;5049537;28;20408;-31
2022/04/06 11:02:50;;;;;;;18.50;6.73;;;9.60;99.90;;;;;;5045649;28;20117;-30
2022/04/06 11:05:49;;;;;;;21.57;6.00;;;9.50;99.90;;;;;;5045612;28;20526;-32
2022/04/06 11:11:47;;;;;;;23.47;6.23;;;9.60;99.90;;;;;;5046793;28;20056;-34
2022/04/06 11:14:33;;;;;;;18.33;5.97;;;9.60;99.90;;;;;;5050833;28;20089;-30
2022/04/06 11:16:59;;;;;;;20.13;6.47;;;9.60;99.90;;;;;;5033264;28;20094;-34
2022/04/06 11:19:26;;;;;;;23.37;6.83;;;9.60;99.90;;;;;;5049041;28;20048;-34
2022/04/06 11:21:53;;;;;;;33.57;6.80;;;9.60;99.90;;;;;;5053803;28;20048;-34
2022/04/06 11:24:24;;;;;;;27.17;6.10;;;9.60;99.90;;;;;;5047250;28;20735;-33
2022/04/06 11:26:50;;;;;;;30.33;7.15;;;9.80;99.90;;;;;;5033799;28;20110;-35
2022/04/06 11:29:17;;;;;;;22.33;6.50;;;9.80;99.90;;;;;;5028018;28;20045;-34
2022/04/06 11:31:57;;;;;;;27.17;6.73;;;9.90;99.90;;;;;;5048359;28;20049;-33
2022/04/06 11:34:49;;;;;;;25.07;6.83;;;10.10;99.90;;;;;;5048880;28;20071;-35
2022/04/06 11:37:14;;;;;;;25.87;6.33;;;10.10;99.90;;;;;;5032213;28;20689;-33
2022/04/06 11:39:40;;;;;;;21.63;5.50;;;10.30;99.90;;;;;;5044929;28;20060;-35
2022/04/06 11:42:14;;;;;;;24.60;6.23;;;10.50;99.90;;;;;;5046261;28;20550;-31
2022/04/06 11:44:40;;;;;;;19.07;5.07;;;10.60;99.90;;;;;;5029750;28;20084;-33
2022/04/06 11:47:06;;;;;;;19.07;5.30;;;10.60;99.90;;;;;;5029545;28;20152;-35
2022/04/06 11:49:31;;;;;;;21.23;5.03;;;10.80;99.90;;;;;;5047793;28;20052;-34
2022/04/06 11:51:59;;;;;;;21.50;5.25;;;10.80;99.90;;;;;;5045959;28;20527;-34
2022/04/06 11:54:25;;;;;;;17.65;4.57;;;10.90;99.90;;;;;;5046290;28;20122;-34
2022/04/06 11:56:52;;;;;;;17.20;4.18;;;10.90;99.90;;;;;;5033310;28;20044;-32
2022/04/06 11:59:19;;;;;;;14.23;4.22;;;11.00;99.90;;;;;;5046560;28;20458;-35
2022/04/06 12:01:46;;;;;;;17.50;4.55;;;11.10;99.90;;;;;;5047048;28;20044;-34
2022/04/06 12:04:14;;;;;;;14.40;4.13;;;11.20;99.90;;;;;;5044641;28;20048;-36
2022/04/06 12:06:40;;;;;;;17.85;3.92;;;11.20;99.90;;;;;;5030833;28;20056;-37
2022/04/06 12:09:08;;;;;;;15.30;4.60;;;11.20;99.90;;;;;;5041399;28;20052;-36
2022/04/06 12:11:40;;;;;;;16.73;4.40;;;11.30;99.90;;;;;;5054580;28;20053;-37
2022/04/06 12:14:11;;;;;;;15.45;3.92;;;11.40;99.90;;;;;;5044583;28;20049;-37
2022/04/06 12:16:41;;;;;;;15.07;4.47;;;11.40;99.90;;;;;;5027840;28;20438;-33
2022/04/06 12:19:13;;;;;;;14.88;3.80;;;11.50;99.90;;;;;;5039460;28;20052;-33
2022/04/06 12:21:43;;;;;;;15.60;4.00;;;11.50;99.90;;;;;;5041685;28;20534;-34
2022/04/06 12:24:11;;;;;;;13.60;3.83;;;11.60;99.90;;;;;;5032182;28;20083;-32
2022/04/06 12:26:42;;;;;;;13.05;4.13;;;11.60;99.90;;;;;;5010351;28;20710;-32
2022/04/06 12:29:13;;;;;;;14.10;4.32;;;11.70;99.90;;;;;;5044488;28;20044;-33
2022/04/06 12:31:40;;;;;;;14.93;3.80;;;11.60;99.90;;;;;;5044113;28;20104;-36
2022/04/06 12:34:08;;;;;;;14.70;4.28;;;11.60;99.90;;;;;;5041890;28;20049;-35
2022/04/06 12:36:33;;;;;;;13.40;3.47;;;11.60;99.90;;;;;;5026990;28;20095;-36
2022/04/06 12:39:10;;;;;;;13.00;3.58;;;11.50;99.90;;;;;;5047290;28;20128;-36
2022/04/06 12:42:00;;;;;;;15.63;4.15;;;11.50;99.90;;;;;;5049260;28;20666;-35
2022/04/06 12:44:27;;;;;;;16.75;3.88;;;11.50;99.90;;;;;;5042444;28;20053;-33
2022/04/06 12:46:53;;;;;;;17.90;4.03;;;11.40;99.90;;;;;;5024041;28;20045;-35
2022/04/06 12:49:42;;;;;;;18.90;4.38;;;11.40;99.90;;;;;;5046213;28;20163;-32
2022/04/06 12:52:22;;;;;;;18.52;4.15;;;11.40;99.90;;;;;;5043581;28;20049;-34
2022/04/06 12:54:51;;;;;;;18.23;4.18;;;11.40;99.90;;;;;;5051645;28;20671;-33
2022/04/06 12:57:25;;;;;;;19.25;4.25;;;11.40;99.90;;;;;;5031363;28;20041;-34